EDDR/SCN METAR and TAF weather

Enter ICAO airport designator
Station Type Date Time Source
EDDR METAR 2019/02/23 22:50 UTC NOAA

EDDR 232250Z 06012KT CAVOK 02/M06 Q1035


Station Type Date Time Source
EDDR Decoded METAR 2019/02/23 22:50 UTC NOAA

Saarbruecken / Ensheim, Germany (EDDR) 49-13N 007-07E 320M
Feb 23, 2019 - 05:50 PM EST / 2019.02.23 2250 UTC
Wind: from the ENE (060 degrees) at 14 MPH (12 KT):0
Visibility: greater than 7 mile(s):0
Temperature: 35 F (2 C)
Windchill: 26 F (-3 C):1
Dew Point: 21 F (-6 C)
Relative Humidity: 55%
Pressure (altimeter): 30.56 in. Hg (1035 hPa)
ob: EDDR 232250Z 06012KT CAVOK 02/M06 Q1035
cycle: 23

Station Type Date Time Source
EDDR TAF 2019/02/23 18:30 UTC NOAA

TAF EDDR 231700Z 2318/2418 06008KT CAVOK


Example: see airport list